sensor_id;sensor_type;location;lat;lon;timestamp;pressure;altitude;pressure_sealevel;temperature;humidity
47726;BME280;33483;48.294;16.388;2024-02-28T00:01:13;99372.53;;;9.71;100.00
47726;BME280;33483;48.294;16.388;2024-02-28T00:03:45;99380.50;;;9.62;100.00
47726;BME280;33483;48.294;16.388;2024-02-28T00:06:12;99368.09;;;9.50;100.00
47726;BME280;33483;48.294;16.388;2024-02-28T00:08:39;99363.97;;;9.38;100.00
47726;BME280;33483;48.294;16.388;2024-02-28T00:11:06;99373.91;;;9.28;100.00
47726;BME280;33483;48.294;16.388;2024-02-28T00:13:35;99374.00;;;9.22;100.00
47726;BME280;33483;48.294;16.388;2024-02-28T00:16:03;99372.78;;;9.18;100.00
47726;BME280;33483;48.294;16.388;2024-02-28T00:18:30;99365.84;;;9.11;100.00
47726;BME280;33483;48.294;16.388;2024-02-28T00:20:58;99367.84;;;9.10;100.00
47726;BME280;33483;48.294;16.388;2024-02-28T00:23:25;99369.34;;;9.12;100.00
47726;BME280;33483;48.294;16.388;2024-02-28T00:25:53;99366.66;;;9.06;100.00
47726;BME280;33483;48.294;16.388;2024-02-28T00:28:20;99364.41;;;9.04;100.00
47726;BME280;33483;48.294;16.388;2024-02-28T00:30:49;99359.47;;;8.97;100.00
47726;BME280;33483;48.294;16.388;2024-02-28T00:33:16;99364.25;;;8.97;100.00
47726;BME280;33483;48.294;16.388;2024-02-28T00:35:44;99362.91;;;9.03;100.00
47726;BME280;33483;48.294;16.388;2024-02-28T00:38:10;99360.13;;;9.03;100.00
47726;BME280;33483;48.294;16.388;2024-02-28T00:40:38;99361.06;;;9.12;100.00
47726;BME280;33483;48.294;16.388;2024-02-28T00:43:07;99367.25;;;9.18;100.00
47726;BME280;33483;48.294;16.388;2024-02-28T00:45:34;99359.13;;;9.25;100.00
47726;BME280;33483;48.294;16.388;2024-02-28T00:48:01;99372.03;;;9.36;100.00
47726;BME280;33483;48.294;16.388;2024-02-28T00:50:29;99371.75;;;9.39;100.00
47726;BME280;33483;48.294;16.388;2024-02-28T00:52:56;99366.22;;;9.39;100.00
47726;BME280;33483;48.294;16.388;2024-02-28T00:55:23;99371.44;;;9.43;100.00
47726;BME280;33483;48.294;16.388;2024-02-28T00:57:50;99363.59;;;9.47;100.00
47726;BME280;33483;48.294;16.388;2024-02-28T01:00:18;99371.28;;;9.54;100.00
47726;BME280;33483;48.294;16.388;2024-02-28T01:02:47;99367.91;;;9.61;100.00
47726;BME280;33483;48.294;16.388;2024-02-28T01:05:17;99376.66;;;9.65;100.00
47726;BME280;33483;48.294;16.388;2024-02-28T01:07:46;99379.06;;;9.74;100.00
47726;BME280;33483;48.294;16.388;2024-02-28T01:10:13;99381.28;;;9.75;100.00
47726;BME280;33483;48.294;16.388;2024-02-28T01:12:40;99374.38;;;9.82;100.00
47726;BME280;33483;48.294;16.388;2024-02-28T01:15:08;99378.28;;;9.92;100.00
47726;BME280;33483;48.294;16.388;2024-02-28T01:17:35;99385.31;;;9.93;100.00
47726;BME280;33483;48.294;16.388;2024-02-28T01:20:02;99382.53;;;9.93;100.00
47726;BME280;33483;48.294;16.388;2024-02-28T01:22:29;99382.53;;;9.93;100.00
47726;BME280;33483;48.294;16.388;2024-02-28T01:24:56;99379.00;;;9.92;100.00
47726;BME280;33483;48.294;16.388;2024-02-28T01:27:23;99382.53;;;9.93;100.00
47726;BME280;33483;48.294;16.388;2024-02-28T01:29:51;99377.97;;;9.95;100.00
47726;BME280;33483;48.294;16.388;2024-02-28T01:32:22;99381.25;;;9.94;100.00
47726;BME280;33483;48.294;16.388;2024-02-28T01:34:50;99395.31;;;9.96;100.00
47726;BME280;33483;48.294;16.388;2024-02-28T01:37:17;99380.06;;;9.89;100.00
47726;BME280;33483;48.294;16.388;2024-02-28T01:39:44;99385.69;;;9.84;100.00
47726;BME280;33483;48.294;16.388;2024-02-28T01:42:11;99392.81;;;9.79;100.00
47726;BME280;33483;48.294;16.388;2024-02-28T01:44:41;99390.47;;;9.83;100.00
47726;BME280;33483;48.294;16.388;2024-02-28T01:47:10;99393.53;;;9.80;100.00
47726;BME280;33483;48.294;16.388;2024-02-28T01:49:38;99385.75;;;9.78;100.00
47726;BME280;33483;48.294;16.388;2024-02-28T01:52:05;99386.06;;;9.75;100.00
47726;BME280;33483;48.294;16.388;2024-02-28T01:54:35;99383.38;;;9.69;100.00
47726;BME280;33483;48.294;16.388;2024-02-28T01:57:02;99397.31;;;9.64;100.00
47726;BME280;33483;48.294;16.388;2024-02-28T01:59:32;99383.03;;;9.60;100.00
47726;BME280;33483;48.294;16.388;2024-02-28T02:02:01;99396.63;;;9.58;100.00
47726;BME280;33483;48.294;16.388;2024-02-28T02:04:28;99392.47;;;9.51;100.00
47726;BME280;33483;48.294;16.388;2024-02-28T02:06:55;99393.06;;;9.44;100.00
47726;BME280;33483;48.294;16.388;2024-02-28T02:09:25;99389.00;;;9.45;100.00
47726;BME280;33483;48.294;16.388;2024-02-28T02:11:52;99395.88;;;9.39;100.00
47726;BME280;33483;48.294;16.388;2024-02-28T02:14:19;99394.69;;;9.34;100.00
47726;BME280;33483;48.294;16.388;2024-02-28T02:16:46;99391.84;;;9.40;100.00
47726;BME280;33483;48.294;16.388;2024-02-28T02:19:14;99403.72;;;9.35;100.00
47726;BME280;33483;48.294;16.388;2024-02-28T02:21:42;99400.28;;;9.29;100.00
47726;BME280;33483;48.294;16.388;2024-02-28T02:24:11;99409.13;;;9.27;100.00
47726;BME280;33483;48.294;16.388;2024-02-28T02:26:38;99403.06;;;9.29;100.00
47726;BME280;33483;48.294;16.388;2024-02-28T02:29:05;99405.81;;;9.29;100.00
47726;BME280;33483;48.294;16.388;2024-02-28T02:31:34;99410.91;;;9.25;100.00
47726;BME280;33483;48.294;16.388;2024-02-28T02:34:02;99411.94;;;9.22;100.00
47726;BME280;33483;48.294;16.388;2024-02-28T02:36:29;99413.91;;;9.27;100.00
47726;BME280;33483;48.294;16.388;2024-02-28T02:38:56;99416.66;;;9.27;100.00
47726;BME280;33483;48.294;16.388;2024-02-28T02:41:23;99417.94;;;9.26;100.00
47726;BME280;33483;48.294;16.388;2024-02-28T02:43:50;99413.66;;;9.25;100.00
47726;BME280;33483;48.294;16.388;2024-02-28T02:46:17;99415.66;;;9.24;100.00
47726;BME280;33483;48.294;16.388;2024-02-28T02:48:44;99417.47;;;9.22;100.00
47726;BME280;33483;48.294;16.388;2024-02-28T02:51:11;99422.25;;;9.21;100.00
47726;BME280;33483;48.294;16.388;2024-02-28T02:53:38;99428.72;;;9.29;100.00
47726;BME280;33483;48.294;16.388;2024-02-28T02:56:06;99430.72;;;9.29;100.00
47726;BME280;33483;48.294;16.388;2024-02-28T02:58:33;99429.50;;;9.24;100.00
47726;BME280;33483;48.294;16.388;2024-02-28T03:01:00;99422.06;;;9.13;100.00
47726;BME280;33483;48.294;16.388;2024-02-28T03:03:28;99422.69;;;9.06;100.00
47726;BME280;33483;48.294;16.388;2024-02-28T03:05:55;99434.91;;;8.92;100.00
47726;BME280;33483;48.294;16.388;2024-02-28T03:08:22;99434.66;;;8.90;100.00
47726;BME280;33483;48.294;16.388;2024-02-28T03:10:49;99435.91;;;8.89;100.00
47726;BME280;33483;48.294;16.388;2024-02-28T03:13:16;99441.59;;;8.78;100.00
47726;BME280;33483;48.294;16.388;2024-02-28T03:15:43;99449.91;;;8.73;100.00
47726;BME280;33483;48.294;16.388;2024-02-28T03:18:11;99453.44;;;8.73;100.00
47726;BME280;33483;48.294;16.388;2024-02-28T03:20:38;99453.00;;;8.64;100.00
47726;BME280;33483;48.294;16.388;2024-02-28T03:23:06;99451.06;;;8.59;100.00
47726;BME280;33483;48.294;16.388;2024-02-28T03:25:35;99456.63;;;8.53;100.00
47726;BME280;33483;48.294;16.388;2024-02-28T03:28:02;99458.38;;;8.51;100.00
47726;BME280;33483;48.294;16.388;2024-02-28T03:30:29;99462.47;;;8.44;100.00
47726;BME280;33483;48.294;16.388;2024-02-28T03:32:57;99472.34;;;8.34;100.00
47726;BME280;33483;48.294;16.388;2024-02-28T03:35:24;99469.09;;;8.30;100.00
47726;BME280;33483;48.294;16.388;2024-02-28T03:37:51;99478.19;;;8.25;100.00
47726;BME280;33483;48.294;16.388;2024-02-28T03:40:18;99480.69;;;8.23;100.00
47726;BME280;33483;48.294;16.388;2024-02-28T03:42:45;99483.19;;;8.27;100.00
47726;BME280;33483;48.294;16.388;2024-02-28T03:45:13;99488.72;;;8.27;100.00
47726;BME280;33483;48.294;16.388;2024-02-28T03:47:40;99483.66;;;8.31;100.00
47726;BME280;33483;48.294;16.388;2024-02-28T03:50:10;99481.66;;;8.31;100.00
47726;BME280;33483;48.294;16.388;2024-02-28T03:52:37;99491.69;;;8.34;100.00
47726;BME280;33483;48.294;16.388;2024-02-28T03:55:04;99493.44;;;8.32;100.00
47726;BME280;33483;48.294;16.388;2024-02-28T03:57:31;99489.44;;;8.33;100.00
47726;BME280;33483;48.294;16.388;2024-02-28T04:00:00;99488.94;;;8.29;100.00
47726;BME280;33483;48.294;16.388;2024-02-28T04:02:37;99494.00;;;8.25;100.00
47726;BME280;33483;48.294;16.388;2024-02-28T04:05:04;99494.47;;;8.23;100.00
47726;BME280;33483;48.294;16.388;2024-02-28T04:07:34;99500.28;;;8.20;100.00
47726;BME280;33483;48.294;16.388;2024-02-28T04:10:01;99505.84;;;8.14;100.00
47726;BME280;33483;48.294;16.388;2024-02-28T04:12:28;99498.13;;;8.07;100.00
47726;BME280;33483;48.294;16.388;2024-02-28T04:14:56;99502.38;;;8.08;100.00
47726;BME280;33483;48.294;16.388;2024-02-28T04:17:23;99509.66;;;8.06;100.00
47726;BME280;33483;48.294;16.388;2024-02-28T04:19:51;99518.44;;;8.04;100.00
47726;BME280;33483;48.294;16.388;2024-02-28T04:22:18;99510.94;;;7.99;100.00
47726;BME280;33483;48.294;16.388;2024-02-28T04:24:48;99514.22;;;7.97;100.00
47726;BME280;33483;48.294;16.388;2024-02-28T04:27:15;99525.53;;;7.94;100.00
47726;BME280;33483;48.294;16.388;2024-02-28T04:29:42;99527.56;;;7.88;100.00
47726;BME280;33483;48.294;16.388;2024-02-28T04:32:09;99519.56;;;7.84;100.00
47726;BME280;33483;48.294;16.388;2024-02-28T04:34:36;99522.59;;;7.81;100.00
47726;BME280;33483;48.294;16.388;2024-02-28T04:37:04;99524.88;;;7.77;100.00
47726;BME280;33483;48.294;16.388;2024-02-28T04:39:31;99531.88;;;7.72;100.00
47726;BME280;33483;48.294;16.388;2024-02-28T04:41:58;99533.91;;;7.72;100.00
47726;BME280;33483;48.294;16.388;2024-02-28T04:44:25;99540.69;;;7.71;100.00
47726;BME280;33483;48.294;16.388;2024-02-28T04:46:52;99530.66;;;7.68;100.00
47726;BME280;33483;48.294;16.388;2024-02-28T04:49:19;99525.16;;;7.62;100.00
47726;BME280;33483;48.294;16.388;2024-02-28T04:51:47;99534.97;;;7.58;100.00
47726;BME280;33483;48.294;16.388;2024-02-28T04:54:14;99540.50;;;7.52;100.00
47726;BME280;33483;48.294;16.388;2024-02-28T04:56:41;99531.22;;;7.50;100.00
47726;BME280;33483;48.294;16.388;2024-02-28T04:59:11;99534.75;;;7.45;100.00
47726;BME280;33483;48.294;16.388;2024-02-28T05:01:38;99542.31;;;7.39;100.00
47726;BME280;33483;48.294;16.388;2024-02-28T05:04:13;99542.56;;;7.35;100.00
47726;BME280;33483;48.294;16.388;2024-02-28T05:06:40;99547.06;;;7.33;100.00
47726;BME280;33483;48.294;16.388;2024-02-28T05:09:07;99548.84;;;7.25;100.00
47726;BME280;33483;48.294;16.388;2024-02-28T05:11:34;99539.56;;;7.22;100.00
47726;BME280;33483;48.294;16.388;2024-02-28T05:14:01;99541.59;;;7.22;100.00
47726;BME280;33483;48.294;16.388;2024-02-28T05:16:29;99549.38;;;7.18;100.00
47726;BME280;33483;48.294;16.388;2024-02-28T05:18:58;99563.41;;;7.14;100.00
47726;BME280;33483;48.294;16.388;2024-02-28T05:21:25;99553.88;;;7.10;100.00
47726;BME280;33483;48.294;16.388;2024-02-28T05:23:52;99541.63;;;7.05;100.00
47726;BME280;33483;48.294;16.388;2024-02-28T05:26:20;99553.16;;;7.04;100.00
47726;BME280;33483;48.294;16.388;2024-02-28T05:28:47;99549.13;;;6.99;100.00
47726;BME280;33483;48.294;16.388;2024-02-28T05:31:23;99551.66;;;6.97;100.00
47726;BME280;33483;48.294;16.388;2024-02-28T05:33:51;99557.16;;;6.97;100.00
47726;BME280;33483;48.294;16.388;2024-02-28T05:36:21;99560.44;;;6.96;100.00
47726;BME280;33483;48.294;16.388;2024-02-28T05:38:51;99557.16;;;6.92;100.00
47726;BME280;33483;48.294;16.388;2024-02-28T05:41:21;99569.44;;;6.91;100.00
47726;BME280;33483;48.294;16.388;2024-02-28T05:43:49;99585.72;;;6.89;100.00
47726;BME280;33483;48.294;16.388;2024-02-28T05:46:16;99586.19;;;6.87;100.00
47726;BME280;33483;48.294;16.388;2024-02-28T05:48:44;99582.97;;;6.89;100.00
47726;BME280;33483;48.294;16.388;2024-02-28T05:51:12;99588.47;;;6.89;100.00
47726;BME280;33483;48.294;16.388;2024-02-28T05:53:40;99595.72;;;6.86;100.00
47726;BME280;33483;48.294;16.388;2024-02-28T05:56:10;99592.22;;;6.85;100.00
47726;BME280;33483;48.294;16.388;2024-02-28T05:58:40;99599.75;;;6.85;100.00
47726;BME280;33483;48.294;16.388;2024-02-28T06:01:08;99617.25;;;6.88;100.00
47726;BME280;33483;48.294;16.388;2024-02-28T06:03:36;99603.50;;;6.93;100.00
47726;BME280;33483;48.294;16.388;2024-02-28T06:06:04;99603.50;;;6.93;100.00
47726;BME280;33483;48.294;16.388;2024-02-28T06:08:34;99617.03;;;6.97;100.00
47726;BME280;33483;48.294;16.388;2024-02-28T06:11:02;99623.78;;;6.96;100.00
47726;BME280;33483;48.294;16.388;2024-02-28T06:13:29;99623.78;;;7.01;100.00
47726;BME280;33483;48.294;16.388;2024-02-28T06:15:56;99622.03;;;7.04;100.00
47726;BME280;33483;48.294;16.388;2024-02-28T06:18:24;99639.31;;;7.04;100.00
47726;BME280;33483;48.294;16.388;2024-02-28T06:20:54;99630.81;;;7.08;100.00
47726;BME280;33483;48.294;16.388;2024-02-28T06:23:22;99628.28;;;7.10;100.00
47726;BME280;33483;48.294;16.388;2024-02-28T06:25:55;99632.31;;;7.14;100.00
47726;BME280;33483;48.294;16.388;2024-02-28T06:28:25;99649.81;;;7.17;100.00
47726;BME280;33483;48.294;16.388;2024-02-28T06:30:55;99652.84;;;7.19;100.00
47726;BME280;33483;48.294;16.388;2024-02-28T06:33:22;99642.81;;;7.21;100.00
47726;BME280;33483;48.294;16.388;2024-02-28T06:35:50;99645.84;;;7.23;100.00
47726;BME280;33483;48.294;16.388;2024-02-28T06:38:19;99656.63;;;7.27;100.00
47726;BME280;33483;48.294;16.388;2024-02-28T06:40:46;99658.59;;;7.32;100.00
47726;BME280;33483;48.294;16.388;2024-02-28T06:43:13;99662.09;;;7.32;100.00
47726;BME280;33483;48.294;16.388;2024-02-28T06:45:41;99666.88;;;7.37;100.00
47726;BME280;33483;48.294;16.388;2024-02-28T06:48:08;99677.16;;;7.37;100.00
47726;BME280;33483;48.294;16.388;2024-02-28T06:50:35;99694.19;;;7.41;100.00
47726;BME280;33483;48.294;16.388;2024-02-28T06:53:02;99688.19;;;7.42;100.00
47726;BME280;33483;48.294;16.388;2024-02-28T06:55:32;99686.16;;;7.43;100.00
47726;BME280;33483;48.294;16.388;2024-02-28T06:57:58;99694.16;;;7.46;100.00
47726;BME280;33483;48.294;16.388;2024-02-28T07:00:26;99697.69;;;7.52;100.00
47726;BME280;33483;48.294;16.388;2024-02-28T07:02:53;99692.19;;;7.58;100.00
47726;BME280;33483;48.294;16.388;2024-02-28T07:05:21;99692.44;;;7.60;100.00
47726;BME280;33483;48.294;16.388;2024-02-28T07:07:48;99692.91;;;7.58;100.00
47726;BME280;33483;48.294;16.388;2024-02-28T07:10:15;99700.94;;;7.62;100.00
47726;BME280;33483;48.294;16.388;2024-02-28T07:12:42;99703.19;;;7.69;100.00
47726;BME280;33483;48.294;16.388;2024-02-28T07:15:10;99710.22;;;7.70;100.00
47726;BME280;33483;48.294;16.388;2024-02-28T07:17:37;99716.22;;;7.74;100.00
47726;BME280;33483;48.294;16.388;2024-02-28T07:20:05;99721.97;;;7.76;100.00
47726;BME280;33483;48.294;16.388;2024-02-28T07:22:32;99718.22;;;7.79;100.00
47726;BME280;33483;48.294;16.388;2024-02-28T07:24:59;99726.97;;;7.83;100.00
47726;BME280;33483;48.294;16.388;2024-02-28T07:27:27;99729.22;;;7.90;100.00
47726;BME280;33483;48.294;16.388;2024-02-28T07:29:57;99723.97;;;7.92;100.00
47726;BME280;33483;48.294;16.388;2024-02-28T07:32:24;99723.44;;;7.93;100.00
47726;BME280;33483;48.294;16.388;2024-02-28T07:34:51;99733.97;;;8.00;100.00
47726;BME280;33483;48.294;16.388;2024-02-28T07:37:18;99735.75;;;8.04;100.00
47726;BME280;33483;48.294;16.388;2024-02-28T07:39:45;99733.47;;;8.02;100.00
47726;BME280;33483;48.294;16.388;2024-02-28T07:42:16;99742.25;;;8.06;100.00
47726;BME280;33483;48.294;16.388;2024-02-28T07:44:44;99738.50;;;8.04;100.00
47726;BME280;33483;48.294;16.388;2024-02-28T07:47:11;99739.25;;;8.04;100.00
47726;BME280;33483;48.294;16.388;2024-02-28T07:49:39;99731.72;;;8.10;100.00
47726;BME280;33483;48.294;16.388;2024-02-28T07:52:06;99745.50;;;8.10;100.00
47726;BME280;33483;48.294;16.388;2024-02-28T07:54:33;99740.50;;;8.14;100.00
47726;BME280;33483;48.294;16.388;2024-02-28T07:57:00;99743.72;;;8.18;100.00
47726;BME280;33483;48.294;16.388;2024-02-28T07:59:28;99750.28;;;8.26;100.00
47726;BME280;33483;48.294;16.388;2024-02-28T08:01:55;99757.53;;;8.35;100.00
47726;BME280;33483;48.294;16.388;2024-02-28T08:04:22;99763.75;;;8.41;100.00
47726;BME280;33483;48.294;16.388;2024-02-28T08:06:49;99763.38;;;8.77;100.00
47726;BME280;33483;48.294;16.388;2024-02-28T08:09:17;99776.91;;;8.86;100.00
47726;BME280;33483;48.294;16.388;2024-02-28T08:11:44;99775.84;;;8.95;100.00
47726;BME280;33483;48.294;16.388;2024-02-28T08:14:12;99772.81;;;8.98;100.00
47726;BME280;33483;48.294;16.388;2024-02-28T08:16:39;99778.09;;;8.96;100.00
47726;BME280;33483;48.294;16.388;2024-02-28T08:19:06;99780.06;;;9.01;100.00
47726;BME280;33483;48.294;16.388;2024-02-28T08:21:33;99788.81;;;9.11;100.00
47726;BME280;33483;48.294;16.388;2024-02-28T08:24:01;99790.78;;;9.22;100.00
47726;BME280;33483;48.294;16.388;2024-02-28T08:26:31;99791.97;;;9.32;100.00
47726;BME280;33483;48.294;16.388;2024-02-28T08:28:58;99795.25;;;9.65;100.00
47726;BME280;33483;48.294;16.388;2024-02-28T08:31:25;99796.41;;;10.05;100.00
47726;BME280;33483;48.294;16.388;2024-02-28T08:33:55;99797.06;;;9.87;100.00
47726;BME280;33483;48.294;16.388;2024-02-28T08:36:22;99799.16;;;9.81;100.00
47726;BME280;33483;48.294;16.388;2024-02-28T08:38:50;99805.56;;;9.94;100.00
47726;BME280;33483;48.294;16.388;2024-02-28T08:41:18;99805.72;;;9.78;100.00
47726;BME280;33483;48.294;16.388;2024-02-28T08:43:46;99803.94;;;9.80;100.00
47726;BME280;33483;48.294;16.388;2024-02-28T08:46:16;99811.69;;;10.17;100.00
47726;BME280;33483;48.294;16.388;2024-02-28T08:48:43;99815.03;;;10.10;100.00
47726;BME280;33483;48.294;16.388;2024-02-28T08:51:11;99813.31;;;10.01;100.00
47726;BME280;33483;48.294;16.388;2024-02-28T08:53:38;99820.50;;;9.86;100.00
47726;BME280;33483;48.294;16.388;2024-02-28T08:56:05;99831.25;;;9.95;100.00
47726;BME280;33483;48.294;16.388;2024-02-28T08:58:35;99831.81;;;9.88;100.00
47726;BME280;33483;48.294;16.388;2024-02-28T09:01:04;99813.53;;;10.09;100.00
47726;BME280;33483;48.294;16.388;2024-02-28T09:03:32;99828.81;;;10.15;100.00
47726;BME280;33483;48.294;16.388;2024-02-28T09:05:59;99833.41;;;10.07;100.00
47726;BME280;33483;48.294;16.388;2024-02-28T09:08:28;99832.94;;;10.03;100.00
47726;BME280;33483;48.294;16.388;2024-02-28T09:10:58;99841.78;;;10.32;100.00
47726;BME280;33483;48.294;16.388;2024-02-28T09:13:25;99835.75;;;10.28;100.00
47726;BME280;33483;48.294;16.388;2024-02-28T09:15:52;99839.94;;;10.10;100.00
47726;BME280;33483;48.294;16.388;2024-02-28T09:18:22;99833.47;;;10.02;100.00
47726;BME280;33483;48.294;16.388;2024-02-28T09:20:49;99841.41;;;10.16;100.00
47726;BME280;33483;48.294;16.388;2024-02-28T09:23:19;99851.22;;;10.17;100.00
47726;BME280;33483;48.294;16.388;2024-02-28T09:25:46;99858.69;;;10.28;100.00
47726;BME280;33483;48.294;16.388;2024-02-28T09:28:13;99850.06;;;10.02;100.00
47726;BME280;33483;48.294;16.388;2024-02-28T09:30:42;99848.31;;;9.99;100.00
47726;BME280;33483;48.294;16.388;2024-02-28T09:33:18;99858.34;;;10.07;100.00
47726;BME280;33483;48.294;16.388;2024-02-28T09:35:46;99862.53;;;10.19;100.00
47726;BME280;33483;48.294;16.388;2024-02-28T09:38:14;99856.97;;;10.49;100.00
47726;BME280;33483;48.294;16.388;2024-02-28T09:40:41;99859.81;;;10.86;100.00
47726;BME280;33483;48.294;16.388;2024-02-28T09:43:11;99869.78;;;11.19;100.00
47726;BME280;33483;48.294;16.388;2024-02-28T09:45:42;99880.78;;;11.24;100.00
47726;BME280;33483;48.294;16.388;2024-02-28T09:48:11;99883.94;;;11.34;100.00
47726;BME280;33483;48.294;16.388;2024-02-28T09:50:39;99882.31;;;11.63;100.00
47726;BME280;33483;48.294;16.388;2024-02-28T09:53:11;99888.38;;;11.80;100.00
47726;BME280;33483;48.294;16.388;2024-02-28T09:55:38;99898.88;;;11.87;100.00
47726;BME280;33483;48.294;16.388;2024-02-28T09:58:06;99903.00;;;11.80;100.00
47726;BME280;33483;48.294;16.388;2024-02-28T10:00:34;99910.03;;;12.00;100.00
47726;BME280;33483;48.294;16.388;2024-02-28T10:03:02;99893.59;;;12.02;100.00
47726;BME280;33483;48.294;16.388;2024-02-28T10:05:30;99901.00;;;12.12;100.00
47726;BME280;33483;48.294;16.388;2024-02-28T10:07:59;99903.78;;;12.12;100.00
47726;BME280;33483;48.294;16.388;2024-02-28T10:10:26;99898.28;;;11.94;100.00
47726;BME280;33483;48.294;16.388;2024-02-28T10:12:55;99898.50;;;11.77;100.00
47726;BME280;33483;48.294;16.388;2024-02-28T10:15:22;99906.38;;;11.92;100.00
47726;BME280;33483;48.294;16.388;2024-02-28T10:17:50;99909.75;;;11.85;100.00
47726;BME280;33483;48.294;16.388;2024-02-28T10:20:17;99911.47;;;11.88;100.00
47726;BME280;33483;48.294;16.388;2024-02-28T10:22:44;99909.31;;;11.99;100.00
47726;BME280;33483;48.294;16.388;2024-02-28T10:25:13;99916.44;;;11.95;100.00
47726;BME280;33483;48.294;16.388;2024-02-28T10:27:41;99922.34;;;12.04;100.00
47726;BME280;33483;48.294;16.388;2024-02-28T10:30:10;99925.34;;;12.38;100.00
47726;BME280;33483;48.294;16.388;2024-02-28T10:32:47;99920.53;;;12.38;96.69
47726;BME280;33483;48.294;16.388;2024-02-28T10:35:14;99935.88;;;12.71;97.02
47726;BME280;33483;48.294;16.388;2024-02-28T10:37:43;99941.84;;;13.07;93.48
47726;BME280;33483;48.294;16.388;2024-02-28T10:40:11;99947.72;;;13.03;91.30
47726;BME280;33483;48.294;16.388;2024-02-28T10:42:42;99940.97;;;13.25;88.02
47726;BME280;33483;48.294;16.388;2024-02-28T10:45:12;99940.63;;;13.02;87.44
47726;BME280;33483;48.294;16.388;2024-02-28T10:47:56;99941.28;;;13.08;86.91
47726;BME280;33483;48.294;16.388;2024-02-28T10:50:23;99950.13;;;12.94;90.60
47726;BME280;33483;48.294;16.388;2024-02-28T10:52:50;99940.00;;;13.22;87.09
47726;BME280;33483;48.294;16.388;2024-02-28T10:55:21;99934.75;;;13.45;85.27
47726;BME280;33483;48.294;16.388;2024-02-28T10:58:05;99938.06;;;13.30;85.14
47726;BME280;33483;48.294;16.388;2024-02-28T11:00:34;99928.78;;;13.02;86.86
47726;BME280;33483;48.294;16.388;2024-02-28T11:03:04;99936.16;;;13.12;88.92
47726;BME280;33483;48.294;16.388;2024-02-28T11:08:05;99940.41;;;12.87;89.08
47726;BME280;33483;48.294;16.388;2024-02-28T11:10:32;99941.47;;;12.84;92.88
47726;BME280;33483;48.294;16.388;2024-02-28T11:13:04;99938.16;;;12.86;90.82
47726;BME280;33483;48.294;16.388;2024-02-28T11:15:32;99929.91;;;12.80;92.51
47726;BME280;33483;48.294;16.388;2024-02-28T11:18:06;99934.03;;;12.61;92.84
47726;BME280;33483;48.294;16.388;2024-02-28T11:20:34;99932.09;;;12.42;97.12
47726;BME280;33483;48.294;16.388;2024-02-28T11:23:02;99920.56;;;12.52;95.37
47726;BME280;33483;48.294;16.388;2024-02-28T11:25:29;99931.69;;;12.65;90.17
47726;BME280;33483;48.294;16.388;2024-02-28T11:27:56;99928.16;;;12.64;93.65
47726;BME280;33483;48.294;16.388;2024-02-28T11:30:24;99931.38;;;12.55;94.21
47726;BME280;33483;48.294;16.388;2024-02-28T11:32:54;99928.50;;;12.74;93.96
47726;BME280;33483;48.294;16.388;2024-02-28T11:35:25;99929.78;;;12.73;92.82
47726;BME280;33483;48.294;16.388;2024-02-28T11:37:54;99921.97;;;12.71;89.92
47726;BME280;33483;48.294;16.388;2024-02-28T11:40:24;99932.91;;;12.69;92.52
47726;BME280;33483;48.294;16.388;2024-02-28T11:42:52;99926.59;;;12.82;91.87
47726;BME280;33483;48.294;16.388;2024-02-28T11:45:19;99923.16;;;12.76;89.10
47726;BME280;33483;48.294;16.388;2024-02-28T11:47:47;99921.34;;;12.65;88.02
47726;BME280;33483;48.294;16.388;2024-02-28T11:50:17;99924.31;;;12.54;88.95
47726;BME280;33483;48.294;16.388;2024-02-28T11:52:48;99915.28;;;12.35;89.17
47726;BME280;33483;48.294;16.388;2024-02-28T11:55:15;99908.88;;;12.40;92.60
47726;BME280;33483;48.294;16.388;2024-02-28T11:57:43;99918.56;;;12.65;91.38
47726;BME280;33483;48.294;16.388;2024-02-28T12:00:10;99913.31;;;12.75;88.12
47726;BME280;33483;48.294;16.388;2024-02-28T12:02:40;99907.97;;;12.77;90.09
47726;BME280;33483;48.294;16.388;2024-02-28T12:05:07;99912.91;;;12.97;88.08
47726;BME280;33483;48.294;16.388;2024-02-28T12:07:37;99909.72;;;13.06;86.31
47726;BME280;33483;48.294;16.388;2024-02-28T12:10:04;99909.06;;;13.00;89.22
47726;BME280;33483;48.294;16.388;2024-02-28T12:12:31;99915.03;;;12.65;88.45
47726;BME280;33483;48.294;16.388;2024-02-28T12:14:59;99915.88;;;12.73;91.92
47726;BME280;33483;48.294;16.388;2024-02-28T12:17:27;99914.47;;;12.53;93.96
47726;BME280;33483;48.294;16.388;2024-02-28T12:20:00;99904.16;;;12.35;96.32
47726;BME280;33483;48.294;16.388;2024-02-28T12:22:28;99909.38;;;12.25;95.81
47726;BME280;33483;48.294;16.388;2024-02-28T12:24:55;99899.00;;;12.26;99.27
47726;BME280;33483;48.294;16.388;2024-02-28T12:27:23;99897.56;;;12.51;98.25
47726;BME280;33483;48.294;16.388;2024-02-28T12:29:50;99894.56;;;12.49;96.78
47726;BME280;33483;48.294;16.388;2024-02-28T12:32:17;99905.59;;;12.55;95.76
47726;BME280;33483;48.294;16.388;2024-02-28T12:34:47;99897.13;;;12.47;95.66
47726;BME280;33483;48.294;16.388;2024-02-28T12:37:14;99892.81;;;12.20;100.00
47726;BME280;33483;48.294;16.388;2024-02-28T12:39:41;99899.38;;;12.04;100.00
47726;BME280;33483;48.294;16.388;2024-02-28T12:42:09;99895.13;;;12.16;100.00
47726;BME280;33483;48.294;16.388;2024-02-28T12:44:36;99895.28;;;11.92;100.00
47726;BME280;33483;48.294;16.388;2024-02-28T12:47:03;99893.13;;;11.98;100.00
47726;BME280;33483;48.294;16.388;2024-02-28T12:49:30;99900.81;;;11.92;100.00
47726;BME280;33483;48.294;16.388;2024-02-28T12:51:57;99899.91;;;11.84;100.00
47726;BME280;33483;48.294;16.388;2024-02-28T12:54:24;99896.72;;;11.80;100.00